Terminal Aerodrome Forecast
Issued by NWS Mt. Holly, NJ

Home | Current Version | Previous Version | Text Only | Print | Product List | Glossary On
Versions: 1 2 3 4 5 6 7 8 9 10 11 12 13 14 15 16 17 18 19 20 21 22 23 24 25 26 27 28 29 30 31 32 33 34 35 36 37 38 39 40 41 42 43 44 45 46 47 48 49 50
000
FTUS41 KPHI 201303 AAA
TAFILG
TAF AMD
KILG 201303Z 2013/2112 VRB03KT P6SM BKN008 OVC014
      TEMPO 2013/2014 BKN008
     FM201500 22006KT P6SM BKN015
     FM201700 23008KT P6SM BKN040
      TEMPO 2020/2024 3SM TSRA OVC015CB
     FM210100 26006KT 4SM SHRA BR BKN025
     FM210600 25007KT P6SM BKN015
     FM211000 29011KT P6SM SCT030=

USA.gov is the U.S. government's official web portal to all federal, state and local government web resources and services.